sensor_id;sensor_type;location;lat;lon;timestamp;P1;durP1;ratioP1;P2;durP2;ratioP2
10902;SDS011;5504;47.312;11.060;2023-06-22T00:02:16;24.02;;;18.75;;
10902;SDS011;5504;47.312;11.060;2023-06-22T00:04:42;22.00;;;17.57;;
10902;SDS011;5504;47.312;11.060;2023-06-22T00:07:08;21.63;;;17.75;;
10902;SDS011;5504;47.312;11.060;2023-06-22T00:09:34;19.70;;;17.58;;
10902;SDS011;5504;47.312;11.060;2023-06-22T00:11:59;21.92;;;19.48;;
10902;SDS011;5504;47.312;11.060;2023-06-22T00:14:26;20.27;;;17.95;;
10902;SDS011;5504;47.312;11.060;2023-06-22T00:16:51;21.33;;;17.92;;
10902;SDS011;5504;47.312;11.060;2023-06-22T00:19:22;24.20;;;19.48;;
10902;SDS011;5504;47.312;11.060;2023-06-22T00:21:50;21.70;;;18.80;;
10902;SDS011;5504;47.312;11.060;2023-06-22T00:24:19;23.02;;;17.98;;
10902;SDS011;5504;47.312;11.060;2023-06-22T00:26:46;22.40;;;18.13;;
10902;SDS011;5504;47.312;11.060;2023-06-22T00:29:13;22.50;;;18.48;;
10902;SDS011;5504;47.312;11.060;2023-06-22T00:31:38;22.40;;;17.90;;
10902;SDS011;5504;47.312;11.060;2023-06-22T00:34:04;20.20;;;16.85;;
10902;SDS011;5504;47.312;11.060;2023-06-22T00:36:31;19.52;;;16.98;;
10902;SDS011;5504;47.312;11.060;2023-06-22T00:38:57;23.37;;;20.23;;
10902;SDS011;5504;47.312;11.060;2023-06-22T00:41:23;24.40;;;20.25;;
10902;SDS011;5504;47.312;11.060;2023-06-22T00:43:48;25.15;;;20.90;;
10902;SDS011;5504;47.312;11.060;2023-06-22T00:46:14;21.20;;;17.15;;
10902;SDS011;5504;47.312;11.060;2023-06-22T00:48:40;20.70;;;17.63;;
10902;SDS011;5504;47.312;11.060;2023-06-22T00:51:09;20.97;;;17.90;;
10902;SDS011;5504;47.312;11.060;2023-06-22T00:53:35;20.45;;;17.13;;
10902;SDS011;5504;47.312;11.060;2023-06-22T00:56:02;19.23;;;17.23;;
10902;SDS011;5504;47.312;11.060;2023-06-22T00:58:28;24.15;;;19.30;;
10902;SDS011;5504;47.312;11.060;2023-06-22T01:00:55;22.02;;;17.83;;
10902;SDS011;5504;47.312;11.060;2023-06-22T01:03:21;24.20;;;20.20;;
10902;SDS011;5504;47.312;11.060;2023-06-22T01:05:47;23.42;;;18.08;;
10902;SDS011;5504;47.312;11.060;2023-06-22T01:11:05;23.48;;;17.73;;
10902;SDS011;5504;47.312;11.060;2023-06-22T01:13:37;21.38;;;18.58;;
10902;SDS011;5504;47.312;11.060;2023-06-22T01:16:30;22.50;;;18.63;;
10902;SDS011;5504;47.312;11.060;2023-06-22T01:19:00;25.53;;;19.83;;
10902;SDS011;5504;47.312;11.060;2023-06-22T01:21:31;23.67;;;18.37;;
10902;SDS011;5504;47.312;11.060;2023-06-22T01:27:02;21.23;;;17.90;;
10902;SDS011;5504;47.312;11.060;2023-06-22T01:29:51;25.17;;;18.05;;
10902;SDS011;5504;47.312;11.060;2023-06-22T01:32:34;28.10;;;19.57;;
10902;SDS011;5504;47.312;11.060;2023-06-22T01:35:03;22.37;;;17.53;;
10902;SDS011;5504;47.312;11.060;2023-06-22T01:37:30;20.07;;;16.60;;
10902;SDS011;5504;47.312;11.060;2023-06-22T01:40:01;23.80;;;18.90;;
10902;SDS011;5504;47.312;11.060;2023-06-22T01:42:29;21.07;;;17.20;;
10902;SDS011;5504;47.312;11.060;2023-06-22T01:44:56;24.17;;;19.00;;
10902;SDS011;5504;47.312;11.060;2023-06-22T01:47:23;20.15;;;17.45;;
10902;SDS011;5504;47.312;11.060;2023-06-22T01:49:50;21.63;;;18.23;;
10902;SDS011;5504;47.312;11.060;2023-06-22T01:52:17;21.08;;;18.77;;
10902;SDS011;5504;47.312;11.060;2023-06-22T01:54:43;21.93;;;17.67;;
10902;SDS011;5504;47.312;11.060;2023-06-22T01:57:09;21.67;;;17.20;;
10902;SDS011;5504;47.312;11.060;2023-06-22T01:59:48;19.20;;;16.17;;
10902;SDS011;5504;47.312;11.060;2023-06-22T02:02:31;18.57;;;16.00;;
10902;SDS011;5504;47.312;11.060;2023-06-22T02:05:10;19.10;;;17.00;;
10902;SDS011;5504;47.312;11.060;2023-06-22T02:07:47;20.25;;;16.63;;
10902;SDS011;5504;47.312;11.060;2023-06-22T02:10:21;20.83;;;17.30;;
10902;SDS011;5504;47.312;11.060;2023-06-22T02:12:49;21.70;;;17.63;;
10902;SDS011;5504;47.312;11.060;2023-06-22T02:15:16;20.10;;;16.27;;
10902;SDS011;5504;47.312;11.060;2023-06-22T02:17:42;21.07;;;17.40;;
10902;SDS011;5504;47.312;11.060;2023-06-22T02:20:12;20.70;;;17.20;;
10902;SDS011;5504;47.312;11.060;2023-06-22T02:22:41;22.00;;;17.60;;
10902;SDS011;5504;47.312;11.060;2023-06-22T02:25:07;19.80;;;17.00;;
10902;SDS011;5504;47.312;11.060;2023-06-22T02:27:33;21.93;;;18.23;;
10902;SDS011;5504;47.312;11.060;2023-06-22T02:29:58;17.57;;;15.60;;
10902;SDS011;5504;47.312;11.060;2023-06-22T02:32:24;18.53;;;15.23;;
10902;SDS011;5504;47.312;11.060;2023-06-22T02:34:50;20.23;;;15.90;;
10902;SDS011;5504;47.312;11.060;2023-06-22T02:37:15;17.03;;;14.63;;
10902;SDS011;5504;47.312;11.060;2023-06-22T02:39:41;20.43;;;15.17;;
10902;SDS011;5504;47.312;11.060;2023-06-22T02:42:07;19.33;;;16.13;;
10902;SDS011;5504;47.312;11.060;2023-06-22T02:44:33;19.50;;;16.00;;
10902;SDS011;5504;47.312;11.060;2023-06-22T02:46:58;17.93;;;15.70;;
10902;SDS011;5504;47.312;11.060;2023-06-22T02:49:24;20.83;;;15.93;;
10902;SDS011;5504;47.312;11.060;2023-06-22T02:51:50;21.90;;;17.90;;
10902;SDS011;5504;47.312;11.060;2023-06-22T02:54:16;19.13;;;16.40;;
10902;SDS011;5504;47.312;11.060;2023-06-22T02:56:41;19.90;;;15.80;;
10902;SDS011;5504;47.312;11.060;2023-06-22T02:59:10;17.90;;;15.80;;
10902;SDS011;5504;47.312;11.060;2023-06-22T03:01:36;18.63;;;14.87;;
10902;SDS011;5504;47.312;11.060;2023-06-22T03:04:06;21.07;;;15.97;;
10902;SDS011;5504;47.312;11.060;2023-06-22T03:06:33;18.60;;;16.60;;
10902;SDS011;5504;47.312;11.060;2023-06-22T03:08:59;19.23;;;15.90;;
10902;SDS011;5504;47.312;11.060;2023-06-22T03:11:26;18.97;;;15.80;;
10902;SDS011;5504;47.312;11.060;2023-06-22T03:13:52;22.17;;;16.67;;
10902;SDS011;5504;47.312;11.060;2023-06-22T03:16:18;21.43;;;16.67;;
10902;SDS011;5504;47.312;11.060;2023-06-22T03:18:44;20.90;;;15.90;;
10902;SDS011;5504;47.312;11.060;2023-06-22T03:21:10;20.70;;;15.50;;
10902;SDS011;5504;47.312;11.060;2023-06-22T03:23:36;20.70;;;15.33;;
10902;SDS011;5504;47.312;11.060;2023-06-22T03:26:02;22.23;;;17.23;;
10902;SDS011;5504;47.312;11.060;2023-06-22T03:28:29;20.77;;;16.60;;
10902;SDS011;5504;47.312;11.060;2023-06-22T03:30:57;20.43;;;16.70;;
10902;SDS011;5504;47.312;11.060;2023-06-22T03:33:23;21.27;;;16.33;;
10902;SDS011;5504;47.312;11.060;2023-06-22T03:35:49;21.47;;;16.03;;
10902;SDS011;5504;47.312;11.060;2023-06-22T03:38:15;17.67;;;15.13;;
10902;SDS011;5504;47.312;11.060;2023-06-22T03:40:44;19.67;;;14.67;;
10902;SDS011;5504;47.312;11.060;2023-06-22T03:43:09;22.47;;;17.30;;
10902;SDS011;5504;47.312;11.060;2023-06-22T03:45:35;19.17;;;16.83;;
10902;SDS011;5504;47.312;11.060;2023-06-22T03:48:01;18.40;;;15.20;;
10902;SDS011;5504;47.312;11.060;2023-06-22T03:50:27;20.33;;;15.33;;
10902;SDS011;5504;47.312;11.060;2023-06-22T03:52:52;18.67;;;15.13;;
10902;SDS011;5504;47.312;11.060;2023-06-22T03:55:21;21.53;;;16.90;;
10902;SDS011;5504;47.312;11.060;2023-06-22T03:57:47;18.83;;;15.87;;
10902;SDS011;5504;47.312;11.060;2023-06-22T04:00:13;19.77;;;16.43;;
10902;SDS011;5504;47.312;11.060;2023-06-22T04:02:40;16.93;;;15.13;;
10902;SDS011;5504;47.312;11.060;2023-06-22T04:05:08;18.57;;;14.63;;
10902;SDS011;5504;47.312;11.060;2023-06-22T04:07:34;18.23;;;14.57;;
10902;SDS011;5504;47.312;11.060;2023-06-22T04:10:02;19.10;;;14.33;;
10902;SDS011;5504;47.312;11.060;2023-06-22T04:12:29;19.37;;;15.50;;
10902;SDS011;5504;47.312;11.060;2023-06-22T04:14:54;20.77;;;15.10;;
10902;SDS011;5504;47.312;11.060;2023-06-22T04:17:20;19.10;;;16.30;;
10902;SDS011;5504;47.312;11.060;2023-06-22T04:19:46;20.07;;;15.90;;
10902;SDS011;5504;47.312;11.060;2023-06-22T04:22:12;23.10;;;16.47;;
10902;SDS011;5504;47.312;11.060;2023-06-22T04:24:38;19.23;;;15.37;;
10902;SDS011;5504;47.312;11.060;2023-06-22T04:27:03;22.27;;;19.47;;
10902;SDS011;5504;47.312;11.060;2023-06-22T04:29:30;19.53;;;15.30;;
10902;SDS011;5504;47.312;11.060;2023-06-22T04:31:56;20.40;;;16.63;;
10902;SDS011;5504;47.312;11.060;2023-06-22T04:34:23;20.70;;;15.67;;
10902;SDS011;5504;47.312;11.060;2023-06-22T04:36:52;21.70;;;16.13;;
10902;SDS011;5504;47.312;11.060;2023-06-22T04:39:18;24.50;;;17.67;;
10902;SDS011;5504;47.312;11.060;2023-06-22T04:41:44;21.92;;;15.48;;
10902;SDS011;5504;47.312;11.060;2023-06-22T04:44:19;22.90;;;16.35;;
10902;SDS011;5504;47.312;11.060;2023-06-22T04:46:54;19.13;;;15.90;;
10902;SDS011;5504;47.312;11.060;2023-06-22T04:49:25;21.08;;;16.23;;
10902;SDS011;5504;47.312;11.060;2023-06-22T04:51:57;20.98;;;16.45;;
10902;SDS011;5504;47.312;11.060;2023-06-22T04:54:30;17.88;;;15.57;;
10902;SDS011;5504;47.312;11.060;2023-06-22T04:57:00;21.67;;;16.60;;
10902;SDS011;5504;47.312;11.060;2023-06-22T04:59:27;16.45;;;14.75;;
10902;SDS011;5504;47.312;11.060;2023-06-22T05:01:55;22.25;;;14.93;;
10902;SDS011;5504;47.312;11.060;2023-06-22T05:04:21;20.08;;;15.55;;
10902;SDS011;5504;47.312;11.060;2023-06-22T05:06:52;22.77;;;15.95;;
10902;SDS011;5504;47.312;11.060;2023-06-22T05:09:18;20.48;;;15.98;;
10902;SDS011;5504;47.312;11.060;2023-06-22T05:11:47;18.58;;;16.25;;
10902;SDS011;5504;47.312;11.060;2023-06-22T05:14:12;21.52;;;16.35;;
10902;SDS011;5504;47.312;11.060;2023-06-22T05:16:40;20.45;;;16.42;;
10902;SDS011;5504;47.312;11.060;2023-06-22T05:19:07;18.40;;;15.30;;
10902;SDS011;5504;47.312;11.060;2023-06-22T05:21:33;19.88;;;16.27;;
10902;SDS011;5504;47.312;11.060;2023-06-22T05:23:58;20.55;;;16.67;;
10902;SDS011;5504;47.312;11.060;2023-06-22T05:26:30;20.75;;;15.48;;
10902;SDS011;5504;47.312;11.060;2023-06-22T05:29:02;21.13;;;17.10;;
10902;SDS011;5504;47.312;11.060;2023-06-22T05:31:28;19.08;;;16.05;;
10902;SDS011;5504;47.312;11.060;2023-06-22T05:33:54;18.98;;;15.98;;
10902;SDS011;5504;47.312;11.060;2023-06-22T05:36:21;21.45;;;16.05;;
10902;SDS011;5504;47.312;11.060;2023-06-22T05:38:50;18.55;;;15.18;;
10902;SDS011;5504;47.312;11.060;2023-06-22T05:41:16;21.95;;;15.90;;
10902;SDS011;5504;47.312;11.060;2023-06-22T05:43:42;20.55;;;16.10;;
10902;SDS011;5504;47.312;11.060;2023-06-22T05:46:08;18.58;;;15.52;;
10902;SDS011;5504;47.312;11.060;2023-06-22T05:48:34;19.00;;;15.75;;
10902;SDS011;5504;47.312;11.060;2023-06-22T05:50:59;19.10;;;13.85;;
10902;SDS011;5504;47.312;11.060;2023-06-22T05:53:25;21.00;;;13.73;;
10902;SDS011;5504;47.312;11.060;2023-06-22T05:55:51;17.85;;;14.50;;
10902;SDS011;5504;47.312;11.060;2023-06-22T05:58:17;20.17;;;15.43;;
10902;SDS011;5504;47.312;11.060;2023-06-22T06:00:42;20.30;;;15.27;;
10902;SDS011;5504;47.312;11.060;2023-06-22T06:03:08;18.60;;;13.88;;
10902;SDS011;5504;47.312;11.060;2023-06-22T06:05:35;16.80;;;14.50;;
10902;SDS011;5504;47.312;11.060;2023-06-22T06:08:02;21.88;;;14.60;;
10902;SDS011;5504;47.312;11.060;2023-06-22T06:10:30;19.85;;;13.43;;
10902;SDS011;5504;47.312;11.060;2023-06-22T06:12:57;19.55;;;13.32;;
10902;SDS011;5504;47.312;11.060;2023-06-22T06:15:22;21.80;;;13.85;;
10902;SDS011;5504;47.312;11.060;2023-06-22T06:17:49;20.23;;;13.73;;
10902;SDS011;5504;47.312;11.060;2023-06-22T06:20:17;17.45;;;14.20;;
10902;SDS011;5504;47.312;11.060;2023-06-22T06:22:44;18.30;;;13.23;;
10902;SDS011;5504;47.312;11.060;2023-06-22T06:25:09;17.63;;;13.35;;
10902;SDS011;5504;47.312;11.060;2023-06-22T06:27:40;18.00;;;13.05;;
10902;SDS011;5504;47.312;11.060;2023-06-22T06:30:10;19.30;;;14.23;;
10902;SDS011;5504;47.312;11.060;2023-06-22T06:32:37;17.40;;;12.30;;
10902;SDS011;5504;47.312;11.060;2023-06-22T06:35:07;16.95;;;13.88;;
10902;SDS011;5504;47.312;11.060;2023-06-22T06:37:37;20.70;;;13.95;;
10902;SDS011;5504;47.312;11.060;2023-06-22T06:40:08;18.20;;;13.63;;
10902;SDS011;5504;47.312;11.060;2023-06-22T06:42:38;18.45;;;12.93;;
10902;SDS011;5504;47.312;11.060;2023-06-22T06:45:09;18.52;;;12.98;;
10902;SDS011;5504;47.312;11.060;2023-06-22T06:47:41;16.35;;;12.07;;
10902;SDS011;5504;47.312;11.060;2023-06-22T06:50:07;16.45;;;12.07;;
10902;SDS011;5504;47.312;11.060;2023-06-22T06:52:33;19.55;;;11.55;;
10902;SDS011;5504;47.312;11.060;2023-06-22T06:54:59;16.75;;;10.65;;
10902;SDS011;5504;47.312;11.060;2023-06-22T06:57:25;17.00;;;10.70;;
10902;SDS011;5504;47.312;11.060;2023-06-22T06:59:55;15.50;;;11.27;;
10902;SDS011;5504;47.312;11.060;2023-06-22T07:02:21;18.70;;;12.77;;
10902;SDS011;5504;47.312;11.060;2023-06-22T07:04:47;17.58;;;12.13;;
10902;SDS011;5504;47.312;11.060;2023-06-22T07:07:13;14.75;;;11.60;;
10902;SDS011;5504;47.312;11.060;2023-06-22T07:09:39;15.05;;;11.68;;
10902;SDS011;5504;47.312;11.060;2023-06-22T07:12:05;16.55;;;11.43;;
10902;SDS011;5504;47.312;11.060;2023-06-22T07:14:31;16.20;;;11.65;;
10902;SDS011;5504;47.312;11.060;2023-06-22T07:16:57;16.90;;;10.60;;
10902;SDS011;5504;47.312;11.060;2023-06-22T07:19:26;15.73;;;10.88;;
10902;SDS011;5504;47.312;11.060;2023-06-22T07:21:53;15.70;;;11.15;;
10902;SDS011;5504;47.312;11.060;2023-06-22T07:24:22;18.85;;;11.60;;
10902;SDS011;5504;47.312;11.060;2023-06-22T07:26:49;16.02;;;11.48;;
10902;SDS011;5504;47.312;11.060;2023-06-22T07:29:18;18.08;;;11.18;;
10902;SDS011;5504;47.312;11.060;2023-06-22T07:31:48;13.13;;;10.30;;
10902;SDS011;5504;47.312;11.060;2023-06-22T07:34:16;15.88;;;11.40;;
10902;SDS011;5504;47.312;11.060;2023-06-22T07:36:42;13.52;;;10.68;;
10902;SDS011;5504;47.312;11.060;2023-06-22T07:39:09;16.20;;;10.52;;
10902;SDS011;5504;47.312;11.060;2023-06-22T07:41:34;18.88;;;12.20;;
10902;SDS011;5504;47.312;11.060;2023-06-22T07:44:01;16.52;;;10.80;;
10902;SDS011;5504;47.312;11.060;2023-06-22T07:46:28;15.57;;;11.45;;
10902;SDS011;5504;47.312;11.060;2023-06-22T07:48:55;15.63;;;11.38;;
10902;SDS011;5504;47.312;11.060;2023-06-22T07:51:21;13.75;;;10.75;;
10902;SDS011;5504;47.312;11.060;2023-06-22T07:53:48;16.60;;;10.82;;
10902;SDS011;5504;47.312;11.060;2023-06-22T07:56:14;16.52;;;9.60;;
10902;SDS011;5504;47.312;11.060;2023-06-22T07:58:44;16.02;;;9.80;;
10902;SDS011;5504;47.312;11.060;2023-06-22T08:01:11;15.15;;;10.45;;
10902;SDS011;5504;47.312;11.060;2023-06-22T08:03:37;13.75;;;10.35;;
10902;SDS011;5504;47.312;11.060;2023-06-22T08:06:04;16.48;;;11.00;;
10902;SDS011;5504;47.312;11.060;2023-06-22T08:08:31;16.77;;;11.60;;
10902;SDS011;5504;47.312;11.060;2023-06-22T08:10:56;15.48;;;11.00;;
10902;SDS011;5504;47.312;11.060;2023-06-22T08:13:22;14.93;;;11.25;;
10902;SDS011;5504;47.312;11.060;2023-06-22T08:15:48;14.65;;;11.27;;
10902;SDS011;5504;47.312;11.060;2023-06-22T08:18:14;15.38;;;11.43;;
10902;SDS011;5504;47.312;11.060;2023-06-22T08:20:41;16.58;;;11.23;;
10902;SDS011;5504;47.312;11.060;2023-06-22T08:23:07;15.20;;;9.90;;
10902;SDS011;5504;47.312;11.060;2023-06-22T08:25:34;17.73;;;10.63;;
10902;SDS011;5504;47.312;11.060;2023-06-22T08:28:01;17.05;;;10.30;;
10902;SDS011;5504;47.312;11.060;2023-06-22T08:30:27;13.63;;;10.23;;
10902;SDS011;5504;47.312;11.060;2023-06-22T08:32:53;15.05;;;10.65;;
10902;SDS011;5504;47.312;11.060;2023-06-22T08:35:21;15.10;;;10.25;;
10902;SDS011;5504;47.312;11.060;2023-06-22T08:37:48;13.32;;;11.07;;
10902;SDS011;5504;47.312;11.060;2023-06-22T08:40:17;15.82;;;10.77;;
10902;SDS011;5504;47.312;11.060;2023-06-22T08:42:45;15.93;;;11.40;;
10902;SDS011;5504;47.312;11.060;2023-06-22T08:45:11;17.00;;;11.48;;
10902;SDS011;5504;47.312;11.060;2023-06-22T08:47:37;16.75;;;11.20;;
10902;SDS011;5504;47.312;11.060;2023-06-22T08:50:04;18.95;;;11.80;;
10902;SDS011;5504;47.312;11.060;2023-06-22T08:52:30;15.20;;;10.98;;
10902;SDS011;5504;47.312;11.060;2023-06-22T08:54:56;15.85;;;11.45;;
10902;SDS011;5504;47.312;11.060;2023-06-22T08:57:23;14.02;;;11.00;;
10902;SDS011;5504;47.312;11.060;2023-06-22T08:59:49;17.42;;;11.30;;
10902;SDS011;5504;47.312;11.060;2023-06-22T09:02:17;18.20;;;12.00;;
10902;SDS011;5504;47.312;11.060;2023-06-22T09:04:44;16.60;;;11.82;;
10902;SDS011;5504;47.312;11.060;2023-06-22T09:07:13;14.68;;;11.90;;
10902;SDS011;5504;47.312;11.060;2023-06-22T09:09:39;16.20;;;11.75;;
10902;SDS011;5504;47.312;11.060;2023-06-22T09:12:05;16.60;;;11.52;;
10902;SDS011;5504;47.312;11.060;2023-06-22T09:14:31;16.90;;;11.80;;
10902;SDS011;5504;47.312;11.060;2023-06-22T09:16:57;15.48;;;11.52;;
10902;SDS011;5504;47.312;11.060;2023-06-22T09:19:22;14.18;;;11.77;;
10902;SDS011;5504;47.312;11.060;2023-06-22T09:21:48;18.42;;;11.65;;
10902;SDS011;5504;47.312;11.060;2023-06-22T09:24:14;14.77;;;10.75;;
10902;SDS011;5504;47.312;11.060;2023-06-22T09:26:39;19.17;;;11.20;;
10902;SDS011;5504;47.312;11.060;2023-06-22T09:29:05;15.30;;;10.88;;
10902;SDS011;5504;47.312;11.060;2023-06-22T09:31:31;13.98;;;10.77;;
10902;SDS011;5504;47.312;11.060;2023-06-22T09:33:57;15.20;;;11.60;;
10902;SDS011;5504;47.312;11.060;2023-06-22T09:36:22;18.10;;;12.25;;
10902;SDS011;5504;47.312;11.060;2023-06-22T09:38:48;16.17;;;10.77;;
10902;SDS011;5504;47.312;11.060;2023-06-22T09:41:20;17.00;;;10.38;;
10902;SDS011;5504;47.312;11.060;2023-06-22T09:43:45;13.32;;;10.50;;
10902;SDS011;5504;47.312;11.060;2023-06-22T09:46:12;16.73;;;10.73;;
10902;SDS011;5504;47.312;11.060;2023-06-22T09:48:38;18.45;;;11.05;;
10902;SDS011;5504;47.312;11.060;2023-06-22T09:51:03;14.23;;;10.70;;
10902;SDS011;5504;47.312;11.060;2023-06-22T09:53:29;15.52;;;9.98;;
10902;SDS011;5504;47.312;11.060;2023-06-22T09:55:55;16.15;;;9.93;;
10902;SDS011;5504;47.312;11.060;2023-06-22T09:58:22;15.55;;;10.10;;
10902;SDS011;5504;47.312;11.060;2023-06-22T10:00:47;13.80;;;10.00;;
10902;SDS011;5504;47.312;11.060;2023-06-22T10:03:13;16.30;;;9.88;;
10902;SDS011;5504;47.312;11.060;2023-06-22T10:05:39;13.88;;;9.40;;
10902;SDS011;5504;47.312;11.060;2023-06-22T10:08:04;13.45;;;9.88;;
10902;SDS011;5504;47.312;11.060;2023-06-22T10:10:32;14.10;;;9.80;;
10902;SDS011;5504;47.312;11.060;2023-06-22T10:13:02;14.68;;;9.77;;
10902;SDS011;5504;47.312;11.060;2023-06-22T10:15:33;15.68;;;9.65;;
10902;SDS011;5504;47.312;11.060;2023-06-22T10:17:58;14.43;;;8.93;;
10902;SDS011;5504;47.312;11.060;2023-06-22T10:20:24;15.10;;;8.90;;
10902;SDS011;5504;47.312;11.060;2023-06-22T10:22:51;11.93;;;8.27;;
10902;SDS011;5504;47.312;11.060;2023-06-22T10:25:16;13.32;;;8.63;;
10902;SDS011;5504;47.312;11.060;2023-06-22T10:27:42;13.27;;;8.32;;
10902;SDS011;5504;47.312;11.060;2023-06-22T10:30:09;13.05;;;8.52;;
10902;SDS011;5504;47.312;11.060;2023-06-22T10:32:37;13.32;;;8.77;;
10902;SDS011;5504;47.312;11.060;2023-06-22T10:35:04;14.90;;;7.68;;
10902;SDS011;5504;47.312;11.060;2023-06-22T10:37:30;14.30;;;7.57;;
10902;SDS011;5504;47.312;11.060;2023-06-22T10:39:56;11.98;;;7.00;;
10902;SDS011;5504;47.312;11.060;2023-06-22T10:42:22;16.75;;;7.57;;
10902;SDS011;5504;47.312;11.060;2023-06-22T10:44:47;11.88;;;7.15;;
10902;SDS011;5504;47.312;11.060;2023-06-22T10:47:13;14.32;;;7.75;;
10902;SDS011;5504;47.312;11.060;2023-06-22T10:49:39;13.50;;;7.28;;
10902;SDS011;5504;47.312;11.060;2023-06-22T10:52:06;11.15;;;7.22;;
10902;SDS011;5504;47.312;11.060;2023-06-22T10:54:32;14.27;;;7.57;;
10902;SDS011;5504;47.312;11.060;2023-06-22T10:56:59;10.95;;;6.90;;
10902;SDS011;5504;47.312;11.060;2023-06-22T10:59:25;11.50;;;6.28;;
10902;SDS011;5504;47.312;11.060;2023-06-22T11:01:51;12.77;;;6.78;;
10902;SDS011;5504;47.312;11.060;2023-06-22T11:04:17;17.52;;;6.65;;
10902;SDS011;5504;47.312;11.060;2023-06-22T11:06:43;12.48;;;6.10;;
10902;SDS011;5504;47.312;11.060;2023-06-22T11:09:09;13.30;;;6.90;;
10902;SDS011;5504;47.312;11.060;2023-06-22T11:11:36;13.95;;;7.22;;
10902;SDS011;5504;47.312;11.060;2023-06-22T11:14:02;14.80;;;6.78;;
10902;SDS011;5504;47.312;11.060;2023-06-22T11:16:27;18.13;;;7.00;;
10902;SDS011;5504;47.312;11.060;2023-06-22T11:18:53;12.63;;;6.53;;
10902;SDS011;5504;47.312;11.060;2023-06-22T11:21:19;12.20;;;5.97;;
10902;SDS011;5504;47.312;11.060;2023-06-22T11:23:44;14.15;;;6.53;;
10902;SDS011;5504;47.312;11.060;2023-06-22T11:26:10;12.18;;;5.88;;
10902;SDS011;5504;47.312;11.060;2023-06-22T11:28:36;14.13;;;6.43;;
10902;SDS011;5504;47.312;11.060;2023-06-22T11:31:02;13.23;;;6.32;;
10902;SDS011;5504;47.312;11.060;2023-06-22T11:33:28;12.85;;;6.22;;
10902;SDS011;5504;47.312;11.060;2023-06-22T11:35:54;15.95;;;6.03;;
10902;SDS011;5504;47.312;11.060;2023-06-22T11:38:21;10.45;;;6.22;;
10902;SDS011;5504;47.312;11.060;2023-06-22T11:40:47;11.98;;;6.40;;
10902;SDS011;5504;47.312;11.060;2023-06-22T11:43:13;11.13;;;6.10;;
10902;SDS011;5504;47.312;11.060;2023-06-22T11:45:40;11.43;;;6.10;;
10902;SDS011;5504;47.312;11.060;2023-06-22T11:48:05;12.65;;;6.43;;
10902;SDS011;5504;47.312;11.060;2023-06-22T11:50:31;11.95;;;7.00;;
10902;SDS011;5504;47.312;11.060;2023-06-22T11:53:00;10.07;;;6.60;;
10902;SDS011;5504;47.312;11.060;2023-06-22T11:55:29;13.95;;;6.32;;
10902;SDS011;5504;47.312;11.060;2023-06-22T11:57:55;15.43;;;6.00;;
10902;SDS011;5504;47.312;11.060;2023-06-22T12:00:24;15.30;;;6.13;;
10902;SDS011;5504;47.312;11.060;2023-06-22T12:02:50;13.07;;;6.18;;
10902;SDS011;5504;47.312;11.060;2023-06-22T12:05:20;12.80;;;6.30;;
10902;SDS011;5504;47.312;11.060;2023-06-22T12:07:46;11.77;;;6.30;;
10902;SDS011;5504;47.312;11.060;2023-06-22T12:10:12;12.38;;;6.20;;
10902;SDS011;5504;47.312;11.060;2023-06-22T12:12:38;12.80;;;6.03;;
10902;SDS011;5504;47.312;11.060;2023-06-22T12:15:04;13.27;;;5.95;;
10902;SDS011;5504;47.312;11.060;2023-06-22T12:17:30;12.55;;;5.78;;
10902;SDS011;5504;47.312;11.060;2023-06-22T12:19:56;13.15;;;5.88;;
10902;SDS011;5504;47.312;11.060;2023-06-22T12:22:23;12.07;;;5.70;;
10902;SDS011;5504;47.312;11.060;2023-06-22T12:24:49;12.20;;;5.90;;
10902;SDS011;5504;47.312;11.060;2023-06-22T12:27:14;11.68;;;5.18;;
10902;SDS011;5504;47.312;11.060;2023-06-22T12:29:43;11.15;;;5.25;;
10902;SDS011;5504;47.312;11.060;2023-06-22T12:32:10;13.70;;;5.72;;
10902;SDS011;5504;47.312;11.060;2023-06-22T12:34:38;13.00;;;5.40;;
10902;SDS011;5504;47.312;11.060;2023-06-22T12:37:04;12.95;;;5.57;;
10902;SDS011;5504;47.312;11.060;2023-06-22T12:39:31;10.10;;;5.40;;
10902;SDS011;5504;47.312;11.060;2023-06-22T12:41:57;12.75;;;5.28;;
10902;SDS011;5504;47.312;11.060;2023-06-22T12:44:23;11.98;;;5.10;;
10902;SDS011;5504;47.312;11.060;2023-06-22T12:46:48;12.88;;;5.97;;
10902;SDS011;5504;47.312;11.060;2023-06-22T12:49:15;13.93;;;6.22;;
10902;SDS011;5504;47.312;11.060;2023-06-22T12:51:41;13.23;;;5.85;;
10902;SDS011;5504;47.312;11.060;2023-06-22T12:54:08;13.68;;;5.47;;
10902;SDS011;5504;47.312;11.060;2023-06-22T12:56:34;11.20;;;5.90;;
10902;SDS011;5504;47.312;11.060;2023-06-22T12:59:00;11.60;;;5.63;;
10902;SDS011;5504;47.312;11.060;2023-06-22T13:01:28;11.57;;;5.47;;
10902;SDS011;5504;47.312;11.060;2023-06-22T13:03:55;11.10;;;5.43;;
10902;SDS011;5504;47.312;11.060;2023-06-22T13:06:21;12.38;;;5.15;;
10902;SDS011;5504;47.312;11.060;2023-06-22T13:08:47;15.85;;;5.80;;
10902;SDS011;5504;47.312;11.060;2023-06-22T13:11:13;15.85;;;5.60;;
10902;SDS011;5504;47.312;11.060;2023-06-22T13:13:39;10.80;;;5.40;;
10902;SDS011;5504;47.312;11.060;2023-06-22T13:16:05;12.57;;;5.93;;
10902;SDS011;5504;47.312;11.060;2023-06-22T13:18:30;10.82;;;5.03;;
10902;SDS011;5504;47.312;11.060;2023-06-22T13:20:56;11.25;;;5.55;;
10902;SDS011;5504;47.312;11.060;2023-06-22T13:23:23;14.50;;;5.82;;
10902;SDS011;5504;47.312;11.060;2023-06-22T13:25:49;13.00;;;5.80;;
10902;SDS011;5504;47.312;11.060;2023-06-22T13:28:14;14.25;;;5.72;;
10902;SDS011;5504;47.312;11.060;2023-06-22T13:30:41;12.32;;;5.90;;
10902;SDS011;5504;47.312;11.060;2023-06-22T13:33:07;12.30;;;5.88;;
10902;SDS011;5504;47.312;11.060;2023-06-22T13:35:33;12.50;;;5.68;;
10902;SDS011;5504;47.312;11.060;2023-06-22T13:38:00;15.85;;;5.70;;
10902;SDS011;5504;47.312;11.060;2023-06-22T13:40:26;12.30;;;6.18;;
10902;SDS011;5504;47.312;11.060;2023-06-22T13:42:52;16.00;;;6.38;;
10902;SDS011;5504;47.312;11.060;2023-06-22T13:45:17;11.80;;;5.70;;
10902;SDS011;5504;47.312;11.060;2023-06-22T13:47:44;12.93;;;6.07;;
10902;SDS011;5504;47.312;11.060;2023-06-22T13:50:10;12.95;;;6.68;;
10902;SDS011;5504;47.312;11.060;2023-06-22T13:52:37;12.73;;;5.45;;
10902;SDS011;5504;47.312;11.060;2023-06-22T13:55:04;12.65;;;5.40;;
10902;SDS011;5504;47.312;11.060;2023-06-22T13:57:30;13.68;;;5.95;;
10902;SDS011;5504;47.312;11.060;2023-06-22T13:59:56;16.83;;;5.75;;
10902;SDS011;5504;47.312;11.060;2023-06-22T14:02:22;13.82;;;6.50;;
10902;SDS011;5504;47.312;11.060;2023-06-22T14:04:48;11.55;;;6.18;;
10902;SDS011;5504;47.312;11.060;2023-06-22T14:07:14;15.23;;;6.18;;
10902;SDS011;5504;47.312;11.060;2023-06-22T14:09:39;13.52;;;5.97;;
10902;SDS011;5504;47.312;11.060;2023-06-22T14:12:05;14.18;;;5.95;;
10902;SDS011;5504;47.312;11.060;2023-06-22T14:14:33;13.18;;;5.97;;
10902;SDS011;5504;47.312;11.060;2023-06-22T14:16:59;14.07;;;5.70;;
10902;SDS011;5504;47.312;11.060;2023-06-22T14:19:25;13.27;;;6.03;;
10902;SDS011;5504;47.312;11.060;2023-06-22T14:21:51;11.85;;;5.95;;
10902;SDS011;5504;47.312;11.060;2023-06-22T14:24:17;11.27;;;5.93;;
10902;SDS011;5504;47.312;11.060;2023-06-22T14:26:42;15.60;;;6.20;;
10902;SDS011;5504;47.312;11.060;2023-06-22T14:29:08;15.25;;;6.35;;
10902;SDS011;5504;47.312;11.060;2023-06-22T14:31:34;14.32;;;6.40;;